createdAt,value
2022-12-25T00:00:08.243Z,277.65
2022-12-25T00:02:56.587Z,277.35
2022-12-25T00:05:44.692Z,253.88
2022-12-25T00:08:34.501Z,271.67
2022-12-25T00:11:23.104Z,266.08
2022-12-25T00:14:11.493Z,264.15
2022-12-25T00:16:59.753Z,272.73
2022-12-25T00:19:47.978Z,267.92
2022-12-25T00:22:36.058Z,249.10
2022-12-25T00:25:25.378Z,263.83
2022-12-25T00:28:13.335Z,259.73
2022-12-25T00:31:05.657Z,270.20
2022-12-25T00:33:54.134Z,273.95
2022-12-25T00:36:42.477Z,264.17
2022-12-25T00:39:30.472Z,253.27
2022-12-25T00:42:19.865Z,293.13
2022-12-25T00:45:08.755Z,257.45
2022-12-25T00:47:56.720Z,269.17
2022-12-25T00:50:44.769Z,262.25
2022-12-25T00:53:33.238Z,258.50
2022-12-25T00:56:21.163Z,265.92
2022-12-25T00:59:10.640Z,277.20
2022-12-25T01:02:18.844Z,273.60
2022-12-25T01:05:08.427Z,253.63
2022-12-25T01:07:56.405Z,262.77
2022-12-25T01:10:43.740Z,265.27
2022-12-25T01:13:34.559Z,269.30
2022-12-25T01:16:24.034Z,266.15
2022-12-25T01:19:12.098Z,263.05
2022-12-25T01:22:00.083Z,267.65
2022-12-25T01:24:48.244Z,279.48
2022-12-25T01:27:36.504Z,263.52
2022-12-25T01:30:24.758Z,266.17
2022-12-25T01:33:14.078Z,260.00
2022-12-25T01:36:02.121Z,285.92
2022-12-25T01:38:50.890Z,274.42
2022-12-25T01:41:38.946Z,261.35
2022-12-25T01:45:18.583Z,282.27
2022-12-25T01:48:12.803Z,265.13
2022-12-25T01:51:06.629Z,262.23
2022-12-25T01:53:58.787Z,255.57
2022-12-25T01:56:49.983Z,256.27
2022-12-25T01:59:38.048Z,265.88
2022-12-25T02:02:26.901Z,263.45
2022-12-25T02:05:19.978Z,273.90
2022-12-25T02:08:11.021Z,271.85
2022-12-25T02:10:59.227Z,271.77
2022-12-25T02:13:47.204Z,271.20
2022-12-25T02:16:58.317Z,298.67
2022-12-25T02:20:19.447Z,268.75
2022-12-25T02:23:31.396Z,245.98
2022-12-25T02:26:36.582Z,256.88
2022-12-25T02:29:33.166Z,244.88
2022-12-25T02:32:27.660Z,248.65
2022-12-25T02:35:21.144Z,280.48
2022-12-25T02:38:14.018Z,259.38
2022-12-25T02:41:07.511Z,276.52
2022-12-25T02:44:14.292Z,257.98
2022-12-25T02:47:25.200Z,255.65
2022-12-25T02:50:33.744Z,247.45
2022-12-25T02:53:39.913Z,249.95
2022-12-25T02:56:47.089Z,253.45
2022-12-25T02:59:56.336Z,257.67
2022-12-25T03:03:20.544Z,258.80
2022-12-25T03:06:27.233Z,237.75
2022-12-25T03:09:38.585Z,265.17
2022-12-25T03:12:39.711Z,243.27
2022-12-25T03:15:45.396Z,258.17
2022-12-25T03:18:36.177Z,265.15
2022-12-25T03:21:41.734Z,245.02
2022-12-25T03:24:47.431Z,254.82
2022-12-25T03:27:36.454Z,287.15
2022-12-25T03:30:45.460Z,252.70
2022-12-25T03:34:09.321Z,267.15
2022-12-25T03:37:18.286Z,261.92
2022-12-25T03:40:32.789Z,258.58
2022-12-25T03:43:46.859Z,246.95
2022-12-25T03:47:13.319Z,258.98
2022-12-25T03:50:25.141Z,248.95
2022-12-25T03:53:37.028Z,254.77
2022-12-25T03:56:43.764Z,246.15
2022-12-25T03:59:49.464Z,237.07
2022-12-25T04:02:55.425Z,229.67
2022-12-25T04:06:02.580Z,244.02
2022-12-25T04:09:19.516Z,229.60
2022-12-25T04:12:25.394Z,242.90
2022-12-25T04:15:31.139Z,248.63
2022-12-25T04:18:36.678Z,247.60
2022-12-25T04:21:43.719Z,230.85
2022-12-25T04:24:49.473Z,238.67
2022-12-25T04:27:55.302Z,261.60
2022-12-25T04:31:00.967Z,258.30
2022-12-25T04:34:06.290Z,238.73
2022-12-25T04:36:55.602Z,251.18
2022-12-25T04:39:43.543Z,242.23
2022-12-25T04:42:31.751Z,252.60
2022-12-25T04:45:20.112Z,265.85
2022-12-25T04:48:08.143Z,263.92
2022-12-25T04:50:56.309Z,275.25
2022-12-25T04:53:46.410Z,259.13
2022-12-25T04:56:36.451Z,274.35
2022-12-25T04:59:28.064Z,267.63
2022-12-25T05:02:16.078Z,264.33
2022-12-25T05:05:04.362Z,255.20
2022-12-25T05:07:52.390Z,269.33
2022-12-25T05:10:41.992Z,281.70
2022-12-25T05:13:29.970Z,259.98
2022-12-25T05:16:19.877Z,263.77
2022-12-25T05:19:08.241Z,262.58
2022-12-25T05:21:56.340Z,274.55
2022-12-25T05:24:44.378Z,284.15
2022-12-25T05:27:33.680Z,280.73
2022-12-25T05:30:21.635Z,272.35
2022-12-25T05:33:09.583Z,264.55
2022-12-25T05:35:57.745Z,256.60
2022-12-25T05:38:45.694Z,287.23
2022-12-25T05:41:34.751Z,271.48
2022-12-25T05:44:24.460Z,279.65
2022-12-25T05:47:12.427Z,268.38
2022-12-25T05:50:00.373Z,272.08
2022-12-25T05:52:48.281Z,279.80
2022-12-25T05:55:36.666Z,261.92
2022-12-25T05:58:24.642Z,269.70
2022-12-25T06:01:16.928Z,260.67
2022-12-25T06:04:10.318Z,281.05
2022-12-25T06:07:00.486Z,283.38
2022-12-25T06:09:48.635Z,266.35
2022-12-25T06:12:36.615Z,271.00
2022-12-25T06:15:24.559Z,259.77
2022-12-25T06:18:13.902Z,273.77
2022-12-25T06:21:01.844Z,272.83
2022-12-25T06:23:50.205Z,275.58
2022-12-25T06:26:38.179Z,278.13
2022-12-25T06:29:26.216Z,282.13
2022-12-25T06:32:14.121Z,295.35
2022-12-25T06:35:03.674Z,261.73
2022-12-25T06:37:51.889Z,266.38
2022-12-25T06:40:39.881Z,260.13
2022-12-25T06:43:27.846Z,269.40
2022-12-25T06:46:15.905Z,271.42
2022-12-25T06:49:03.875Z,255.43
2022-12-25T06:51:53.189Z,280.08
2022-12-25T06:54:41.117Z,282.15
2022-12-25T06:57:29.056Z,271.80
2022-12-25T07:00:17.178Z,262.88
2022-12-25T07:03:05.803Z,287.02
2022-12-25T07:05:33.632Z,273.48
2022-12-25T07:08:02.956Z,264.65
2022-12-25T07:10:30.653Z,264.90
2022-12-25T07:12:58.294Z,301.80
2022-12-25T07:15:26.009Z,282.15
2022-12-25T07:17:53.652Z,297.13
2022-12-25T07:20:21.315Z,288.17
2022-12-25T07:22:48.992Z,288.10
2022-12-25T07:25:17.947Z,280.08
2022-12-25T07:27:45.628Z,269.85
2022-12-25T07:30:14.255Z,297.27
2022-12-25T07:32:46.821Z,287.10
2022-12-25T07:35:17.645Z,283.35
2022-12-25T07:37:45.383Z,274.20
2022-12-25T07:40:13.757Z,273.05
2022-12-25T07:42:42.742Z,267.27
2022-12-25T07:45:11.374Z,273.38
2022-12-25T07:47:39.645Z,247.75
2022-12-25T07:50:08.536Z,274.05
2022-12-25T07:52:43.033Z,271.33
2022-12-25T07:55:11.412Z,276.40
2022-12-25T07:57:39.028Z,278.67
2022-12-25T08:00:09.512Z,270.08
2022-12-25T08:02:40.841Z,285.25
2022-12-25T08:05:09.657Z,283.45
2022-12-25T08:07:37.373Z,277.85
2022-12-25T08:10:05.751Z,280.60
2022-12-25T08:12:33.644Z,279.08
2022-12-25T08:15:01.326Z,275.58
2022-12-25T08:17:30.513Z,272.05
2022-12-25T08:19:58.167Z,295.77
2022-12-25T08:22:25.826Z,272.88
2022-12-25T08:24:53.497Z,279.05
2022-12-25T08:27:21.135Z,308.25
2022-12-25T08:29:48.811Z,298.17
2022-12-25T08:32:16.488Z,302.88
2022-12-25T08:34:45.558Z,292.63
2022-12-25T08:37:13.263Z,295.85
2022-12-25T08:39:41.089Z,289.30
2022-12-25T08:42:08.909Z,279.13
2022-12-25T08:44:37.519Z,292.65
2022-12-25T08:47:05.750Z,284.30
2022-12-25T08:49:33.733Z,288.70
2022-12-25T08:52:02.982Z,292.52
2022-12-25T08:54:32.416Z,282.58
2022-12-25T08:57:03.050Z,294.45
2022-12-25T08:59:30.933Z,288.20
2022-12-25T09:01:58.791Z,292.75
2022-12-25T09:04:26.732Z,288.48
2022-12-25T09:06:54.372Z,301.83
2022-12-25T09:09:27.065Z,281.23
2022-12-25T09:11:54.959Z,280.83
2022-12-25T09:14:23.001Z,297.60
2022-12-25T09:16:51.003Z,278.35
2022-12-25T09:19:18.811Z,304.65
2022-12-25T09:21:46.603Z,286.90
2022-12-25T09:24:14.487Z,306.42
2022-12-25T09:26:43.550Z,317.60
2022-12-25T09:29:11.246Z,304.95
2022-12-25T09:31:38.960Z,312.17
2022-12-25T09:34:06.714Z,314.08
2022-12-25T09:36:34.454Z,304.77
2022-12-25T09:39:02.443Z,325.85
2022-12-25T09:41:34.893Z,304.58
2022-12-25T09:44:08.991Z,301.55
2022-12-25T09:46:42.352Z,308.25
2022-12-25T09:49:19.723Z,301.58
2022-12-25T09:51:51.287Z,292.58
2022-12-25T09:54:23.228Z,294.38
2022-12-25T09:56:51.092Z,311.55
2022-12-25T09:59:26.190Z,319.08
2022-12-25T10:02:21.187Z,315.40
2022-12-25T10:05:04.367Z,324.10
2022-12-25T10:07:44.356Z,328.55
2022-12-25T10:10:25.852Z,315.30
2022-12-25T10:13:05.208Z,324.98
2022-12-25T10:15:43.381Z,333.90
2022-12-25T10:18:44.594Z,323.50
2022-12-25T10:21:15.336Z,314.67
2022-12-25T10:23:48.318Z,316.15
2022-12-25T10:26:18.314Z,318.55
2022-12-25T10:28:47.779Z,319.17
2022-12-25T10:31:21.333Z,335.50
2022-12-25T10:33:50.258Z,323.35
2022-12-25T10:36:20.660Z,327.33
2022-12-25T10:38:48.438Z,305.27
2022-12-25T10:41:29.382Z,335.05
2022-12-25T10:43:58.553Z,339.05
2022-12-25T10:46:30.001Z,322.98
2022-12-25T10:49:00.514Z,349.27
2022-12-25T10:51:32.884Z,335.83
2022-12-25T10:54:03.193Z,346.45
2022-12-25T10:56:31.217Z,324.70
2022-12-25T10:59:06.137Z,340.67
2022-12-25T11:01:35.436Z,351.77
2022-12-25T11:04:03.520Z,329.45
2022-12-25T11:06:34.433Z,338.52
2022-12-25T11:09:03.591Z,334.02
2022-12-25T11:11:32.031Z,346.05
2022-12-25T11:14:02.684Z,328.90
2022-12-25T11:16:33.971Z,326.08
2022-12-25T11:19:03.611Z,308.35
2022-12-25T11:21:33.639Z,333.23
2022-12-25T11:24:03.420Z,324.63
2022-12-25T11:26:36.432Z,328.63
2022-12-25T11:29:06.473Z,321.60
2022-12-25T11:31:40.106Z,320.90
2022-12-25T11:34:20.553Z,312.17
2022-12-25T11:36:50.543Z,317.35
2022-12-25T11:39:27.883Z,323.83
2022-12-25T11:42:00.107Z,344.38
2022-12-25T11:44:38.685Z,336.02
2022-12-25T11:47:12.932Z,340.30
2022-12-25T11:49:50.296Z,328.52
2022-12-25T11:52:20.985Z,341.10
2022-12-25T11:54:54.247Z,342.30
2022-12-25T11:57:25.104Z,312.58
2022-12-25T11:59:56.968Z,353.08
2022-12-25T12:02:32.124Z,349.80
2022-12-25T12:05:10.123Z,327.30
2022-12-25T12:07:42.643Z,336.40
2022-12-25T12:10:18.077Z,352.83
2022-12-25T12:12:56.328Z,338.92
2022-12-25T12:15:30.460Z,349.40
2022-12-25T12:18:09.489Z,351.90
2022-12-25T12:20:39.000Z,354.10
2022-12-25T12:23:16.439Z,340.88
2022-12-25T12:25:45.776Z,354.20
2022-12-25T12:28:21.568Z,368.85
2022-12-25T12:30:59.694Z,359.88
2022-12-25T12:33:32.544Z,324.80
2022-12-25T12:36:05.037Z,368.92
2022-12-25T12:38:35.104Z,339.08
2022-12-25T12:41:04.677Z,382.17
2022-12-25T12:43:37.271Z,341.02
2022-12-25T12:46:16.513Z,352.77
2022-12-25T12:48:46.624Z,329.17
2022-12-25T12:51:29.224Z,354.65
2022-12-25T12:54:18.111Z,334.40
2022-12-25T12:56:56.482Z,347.13
2022-12-25T12:59:25.129Z,339.58
2022-12-25T13:02:04.677Z,350.85
2022-12-25T13:04:48.598Z,320.80
2022-12-25T13:07:32.192Z,324.00
2022-12-25T13:10:11.532Z,340.23
2022-12-25T13:12:39.432Z,325.50
2022-12-25T13:15:13.697Z,344.65
2022-12-25T13:17:44.225Z,333.30
2022-12-25T13:20:21.162Z,340.23
2022-12-25T13:22:52.947Z,333.10
2022-12-25T13:25:23.343Z,339.50
2022-12-25T13:27:59.771Z,356.48
2022-12-25T13:30:27.924Z,343.15
2022-12-25T13:32:56.942Z,343.73
2022-12-25T13:35:25.033Z,366.17
2022-12-25T13:37:54.720Z,366.50
2022-12-25T13:40:26.051Z,358.08
2022-12-25T13:42:57.829Z,343.65
2022-12-25T13:45:28.807Z,353.20
2022-12-25T13:47:58.065Z,349.50
2022-12-25T13:50:29.097Z,366.80
2022-12-25T13:53:12.078Z,353.85
2022-12-25T13:55:41.001Z,342.92
2022-12-25T13:58:19.459Z,361.33
2022-12-25T14:00:49.634Z,339.67
2022-12-25T14:03:21.211Z,327.38
2022-12-25T14:05:57.118Z,335.15
2022-12-25T14:08:28.368Z,335.63
2022-12-25T14:10:57.838Z,357.67
2022-12-25T14:13:28.807Z,352.15
2022-12-25T14:15:57.602Z,347.38
2022-12-25T14:18:26.917Z,323.75
2022-12-25T14:21:03.571Z,319.67
2022-12-25T14:23:41.175Z,353.08
2022-12-25T14:26:16.168Z,352.40
2022-12-25T14:28:48.930Z,337.13
2022-12-25T14:31:17.674Z,348.67
2022-12-25T14:33:46.861Z,344.85
2022-12-25T14:36:15.367Z,361.90
2022-12-25T14:38:44.587Z,345.35
2022-12-25T14:41:33.120Z,344.50
2022-12-25T14:44:02.502Z,337.80
2022-12-25T14:46:32.212Z,328.67
2022-12-25T14:49:01.695Z,349.67
2022-12-25T14:51:31.452Z,340.25
2022-12-25T14:54:03.700Z,332.10
2022-12-25T14:56:37.989Z,356.70
2022-12-25T14:59:07.647Z,358.60
2022-12-25T15:01:38.228Z,339.65
2022-12-25T15:04:09.077Z,361.13
2022-12-25T15:06:37.590Z,346.63
2022-12-25T15:09:14.343Z,323.38
2022-12-25T15:11:42.382Z,342.05
2022-12-25T15:14:10.074Z,334.85
2022-12-25T15:16:44.036Z,339.08
2022-12-25T15:19:24.920Z,366.30
2022-12-25T15:21:53.848Z,342.73
2022-12-25T15:24:22.936Z,355.25
2022-12-25T15:26:53.138Z,330.77
2022-12-25T15:29:44.504Z,331.40
2022-12-25T15:32:15.172Z,332.63
2022-12-25T15:34:42.888Z,311.27
2022-12-25T15:37:10.660Z,339.23
2022-12-25T15:39:39.822Z,318.00
2022-12-25T15:42:12.771Z,330.85
2022-12-25T15:44:41.853Z,306.50
2022-12-25T15:47:10.607Z,321.27
2022-12-25T15:49:38.360Z,324.98
2022-12-25T15:52:06.441Z,322.38
2022-12-25T15:54:34.771Z,303.75
2022-12-25T15:57:06.228Z,319.58
2022-12-25T15:59:34.526Z,314.30
2022-12-25T16:02:02.972Z,303.40
2022-12-25T16:04:31.727Z,304.98
2022-12-25T16:07:00.402Z,315.45
2022-12-25T16:09:28.136Z,317.30
2022-12-25T16:11:55.834Z,330.55
2022-12-25T16:14:24.893Z,313.83
2022-12-25T16:16:52.610Z,290.05
2022-12-25T16:19:20.293Z,302.13
2022-12-25T16:21:48.218Z,305.80
2022-12-25T16:24:15.907Z,305.88
2022-12-25T16:26:44.352Z,277.88
2022-12-25T16:29:12.055Z,315.17
2022-12-25T16:31:41.653Z,298.42
2022-12-25T16:34:10.331Z,287.52
2022-12-25T16:36:38.023Z,296.60
2022-12-25T16:39:06.309Z,280.65
2022-12-25T16:41:35.183Z,312.02
2022-12-25T16:44:08.952Z,313.58
2022-12-25T16:46:37.863Z,296.33
2022-12-25T16:49:07.321Z,286.73
2022-12-25T16:51:35.055Z,302.75
2022-12-25T16:54:02.789Z,295.33
2022-12-25T16:56:30.821Z,328.35
2022-12-25T16:58:59.314Z,328.17
2022-12-25T17:01:27.254Z,329.92
2022-12-25T17:03:55.204Z,330.17
2022-12-25T17:06:26.861Z,335.63
2022-12-25T17:08:57.877Z,332.02
2022-12-25T17:11:29.463Z,346.38
2022-12-25T17:13:57.590Z,339.35
2022-12-25T17:16:27.225Z,347.65
2022-12-25T17:18:55.629Z,344.52
2022-12-25T17:21:26.286Z,352.80
2022-12-25T17:23:59.631Z,348.40
2022-12-25T17:26:29.998Z,342.35
2022-12-25T17:28:58.096Z,333.15
2022-12-25T17:31:25.862Z,342.63
2022-12-25T17:33:53.820Z,349.08
2022-12-25T17:36:22.720Z,318.77
2022-12-25T17:38:51.770Z,346.73
2022-12-25T17:41:20.830Z,327.63
2022-12-25T17:43:49.280Z,338.50
2022-12-25T17:46:19.513Z,333.02
2022-12-25T17:48:47.337Z,323.65
2022-12-25T17:51:16.535Z,340.77
2022-12-25T17:53:46.287Z,352.65
2022-12-25T17:56:16.294Z,343.05
2022-12-25T17:58:44.625Z,345.33
2022-12-25T18:01:14.365Z,353.48
2022-12-25T18:03:42.789Z,348.50
2022-12-25T18:06:13.237Z,336.83
2022-12-25T18:08:42.376Z,325.55
2022-12-25T18:11:13.618Z,324.17
2022-12-25T18:13:43.358Z,340.30
2022-12-25T18:16:12.330Z,334.90
2022-12-25T18:18:40.674Z,336.65
2022-12-25T18:21:08.994Z,339.63
2022-12-25T18:23:37.308Z,324.35
2022-12-25T18:26:07.067Z,333.42
2022-12-25T18:28:35.520Z,335.02
2022-12-25T18:31:08.404Z,328.25
2022-12-25T18:33:36.879Z,318.40
2022-12-25T18:36:05.598Z,332.88
2022-12-25T18:38:33.690Z,324.67
2022-12-25T18:41:01.329Z,331.00
2022-12-25T18:43:51.393Z,327.38
2022-12-25T18:46:18.151Z,315.63
2022-12-25T18:48:46.090Z,309.75
2022-12-25T18:51:15.196Z,321.13
2022-12-25T18:53:42.904Z,324.70
2022-12-25T18:56:13.017Z,334.00
2022-12-25T18:58:41.508Z,326.48
2022-12-25T19:01:14.836Z,325.95
2022-12-25T19:03:44.964Z,345.00
2022-12-25T19:06:17.522Z,300.58
2022-12-25T19:08:45.268Z,338.95
2022-12-25T19:11:14.490Z,343.27
2022-12-25T19:13:42.362Z,332.55
2022-12-25T19:16:10.928Z,316.73
2022-12-25T19:18:39.170Z,333.65
2022-12-25T19:21:09.972Z,320.65
2022-12-25T19:23:38.350Z,325.50
2022-12-25T19:26:06.970Z,333.25
2022-12-25T19:28:34.889Z,325.92
2022-12-25T19:31:07.219Z,341.48
2022-12-25T19:33:36.768Z,321.98
2022-12-25T19:36:06.580Z,326.42
2022-12-25T19:38:36.085Z,307.13
2022-12-25T19:41:06.738Z,326.48
2022-12-25T19:43:36.207Z,316.10
2022-12-25T19:46:04.884Z,321.60
2022-12-25T19:48:33.930Z,329.05
2022-12-25T19:51:01.896Z,318.90
2022-12-25T19:53:30.902Z,317.80
2022-12-25T19:56:03.001Z,319.77
2022-12-25T19:58:30.767Z,289.70
2022-12-25T20:00:59.459Z,323.88
2022-12-25T20:03:27.695Z,320.98
2022-12-25T20:05:55.593Z,321.63
2022-12-25T20:08:23.610Z,323.85
2022-12-25T20:10:51.735Z,352.00
2022-12-25T20:13:21.458Z,352.10
2022-12-25T20:15:49.487Z,337.13
2022-12-25T20:18:17.746Z,354.73
2022-12-25T20:20:45.681Z,351.35
2022-12-25T20:23:13.353Z,339.13
2022-12-25T20:25:41.753Z,343.70
2022-12-25T20:28:09.541Z,350.98
2022-12-25T20:30:40.816Z,344.40
2022-12-25T20:33:10.038Z,338.10
2022-12-25T20:35:37.762Z,379.10
2022-12-25T20:38:05.442Z,370.08
2022-12-25T20:40:53.054Z,364.27
2022-12-25T20:43:20.805Z,372.17
2022-12-25T20:45:52.601Z,391.90
2022-12-25T20:48:20.349Z,363.23
2022-12-25T20:50:48.078Z,372.60
2022-12-25T20:53:15.999Z,363.55
2022-12-25T20:55:46.195Z,376.63
2022-12-25T20:58:14.019Z,372.13
2022-12-25T21:00:42.674Z,385.77
2022-12-25T21:03:12.389Z,366.73
2022-12-25T21:05:59.603Z,379.55
2022-12-25T21:08:48.786Z,371.52
2022-12-25T21:11:36.785Z,365.58
2022-12-25T21:14:26.139Z,357.27
2022-12-25T21:17:14.135Z,353.02
2022-12-25T21:20:03.960Z,357.75
2022-12-25T21:22:51.965Z,340.13
2022-12-25T21:25:39.932Z,359.42
2022-12-25T21:28:30.023Z,373.88
2022-12-25T21:31:18.534Z,356.52
2022-12-25T21:34:05.547Z,369.80
2022-12-25T21:36:54.787Z,372.77
2022-12-25T21:39:42.841Z,350.98
2022-12-25T21:42:31.800Z,339.73
2022-12-25T21:45:19.768Z,349.90
2022-12-25T21:48:07.688Z,335.33
2022-12-25T21:51:13.402Z,364.45
2022-12-25T21:54:03.200Z,348.80
2022-12-25T21:56:51.412Z,330.98
2022-12-25T21:59:39.647Z,355.38
2022-12-25T22:02:27.747Z,359.42
2022-12-25T22:05:37.482Z,350.52
2022-12-25T22:08:29.257Z,368.15
2022-12-25T22:11:36.309Z,352.98
2022-12-25T22:14:51.058Z,366.48
2022-12-25T22:18:01.114Z,379.25
2022-12-25T22:20:49.055Z,358.33
2022-12-25T22:23:36.986Z,382.95
2022-12-25T22:26:26.247Z,395.75
2022-12-25T22:29:14.305Z,377.55
2022-12-25T22:32:02.230Z,386.38
2022-12-25T22:34:50.280Z,376.38
2022-12-25T22:37:38.614Z,379.77
2022-12-25T22:40:26.566Z,385.00
2022-12-25T22:43:15.875Z,408.27
2022-12-25T22:46:03.900Z,380.15
2022-12-25T22:48:52.017Z,365.70
2022-12-25T22:51:39.939Z,374.75
2022-12-25T22:54:30.032Z,385.48
2022-12-25T22:57:18.097Z,420.42
2022-12-25T23:00:10.221Z,408.92
2022-12-25T23:02:58.436Z,387.65
2022-12-25T23:05:54.607Z,393.27
2022-12-25T23:08:42.565Z,382.08
2022-12-25T23:11:30.926Z,418.48
2022-12-25T23:14:36.318Z,388.67
2022-12-25T23:17:43.425Z,401.55
2022-12-25T23:20:51.552Z,390.50
2022-12-25T23:23:57.186Z,403.38
2022-12-25T23:26:45.712Z,400.50
2022-12-25T23:29:36.803Z,394.98
2022-12-25T23:32:27.966Z,423.33
2022-12-25T23:35:15.948Z,390.00
2022-12-25T23:38:03.889Z,400.88
2022-12-25T23:40:52.321Z,401.08
2022-12-25T23:43:40.256Z,365.88
2022-12-25T23:46:28.339Z,397.75
2022-12-25T23:49:18.045Z,381.77
2022-12-25T23:52:06.533Z,403.50
2022-12-25T23:54:54.459Z,405.77
2022-12-25T23:57:42.540Z,395.00
